Time;durP1;ratioP1;P1;durP2;ratioP2;P2;SDS_P1;SDS_P2;PMS_P1;PMS_P2;Temp;Humidity;BMP_temperature;BMP_pressure;BME280_temperature;BME280_humidity;BME280_pressure;Samples;Min_cycle;Max_cycle;Signal;HPM_P1;HPM_P2
2021/04/07 00:00:39;;;;;;;60.53;23.77;;;-2.20;99.90;;;;;;4418374;28;656766;-70
2021/04/07 00:03:26;;;;;;;58.17;24.20;;;-2.20;99.90;;;;;;4432622;28;656741;-72
2021/04/07 00:06:14;;;;;;;51.85;23.20;;;-2.20;99.90;;;;;;4414094;28;656610;-71
2021/04/07 00:09:02;;;;;;;61.57;24.03;;;-2.20;99.90;;;;;;4433126;28;656920;-72
2021/04/07 00:11:49;;;;;;;51.57;23.10;;;-2.30;99.90;;;;;;4413934;28;657220;-72
2021/04/07 00:14:36;;;;;;;58.17;23.67;;;-2.30;99.90;;;;;;4432271;28;656764;-72
2021/04/07 00:17:23;;;;;;;57.00;24.27;;;-2.30;99.90;;;;;;4413102;28;656797;-71
2021/04/07 00:20:12;;;;;;;53.63;24.40;;;-2.30;99.90;;;;;;4436650;28;657294;-72
2021/04/07 00:23:00;;;;;;;54.90;22.33;;;-2.30;99.90;;;;;;4413924;28;656951;-72
2021/04/07 00:25:48;;;;;;;58.57;22.67;;;-2.30;99.90;;;;;;4412942;28;656481;-71
2021/04/07 00:28:35;;;;;;;46.13;21.03;;;-2.40;99.90;;;;;;4432422;28;657162;-71
2021/04/07 00:31:22;;;;;;;44.30;20.70;;;-2.30;99.90;;;;;;4425796;28;656758;-70
2021/04/07 00:34:10;;;;;;;54.13;22.35;;;-2.40;99.90;;;;;;4436120;28;656411;-72
2021/04/07 00:36:58;;;;;;;50.28;20.33;;;-2.40;99.90;;;;;;4417095;28;656354;-70
2021/04/07 00:39:46;;;;;;;48.87;20.33;;;-2.40;99.90;;;;;;4431848;28;657950;-71
2021/04/07 00:42:33;;;;;;;58.60;22.47;;;-2.40;99.90;;;;;;4413155;28;656647;-71
2021/04/07 00:45:20;;;;;;;47.40;20.60;;;-2.40;99.90;;;;;;4434371;28;656681;-70
2021/04/07 00:48:08;;;;;;;50.40;21.20;;;-2.40;99.90;;;;;;4413001;28;656330;-69
2021/04/07 00:50:56;;;;;;;48.53;20.47;;;-2.40;99.90;;;;;;4431883;28;657194;-71
2021/04/07 00:53:43;;;;;;;54.50;21.60;;;-2.50;99.90;;;;;;4412785;28;656365;-72
2021/04/07 00:56:31;;;;;;;50.70;21.47;;;-2.50;99.90;;;;;;4435556;28;657090;-71
2021/04/07 00:59:19;;;;;;;47.53;21.63;;;-2.50;99.90;;;;;;4412704;28;656553;-71
2021/04/07 01:02:06;;;;;;;45.67;20.17;;;-2.50;99.90;;;;;;4432353;28;657052;-72
2021/04/07 01:04:53;;;;;;;56.47;21.67;;;-2.50;99.90;;;;;;4413370;28;656512;-72
2021/04/07 01:07:40;;;;;;;45.47;21.73;;;-2.50;99.90;;;;;;4431693;28;657246;-72
2021/04/07 01:10:28;;;;;;;51.00;22.33;;;-2.50;99.90;;;;;;4412258;28;656852;-71
2021/04/07 01:13:16;;;;;;;52.60;22.00;;;-2.40;99.90;;;;;;4431450;28;657550;-71
2021/04/07 01:16:03;;;;;;;52.50;21.45;;;-2.40;99.90;;;;;;4409581;28;656385;-71
2021/04/07 01:18:51;;;;;;;54.00;21.87;;;-2.40;99.90;;;;;;4431412;28;657219;-71
2021/04/07 01:21:38;;;;;;;45.23;18.63;;;-2.30;99.90;;;;;;4410570;28;657168;-71
2021/04/07 01:24:26;;;;;;;37.67;16.00;;;-2.30;99.90;;;;;;4432523;28;656685;-72
2021/04/07 01:27:13;;;;;;;43.43;17.90;;;-2.30;99.90;;;;;;4409812;28;656443;-71
2021/04/07 01:30:00;;;;;;;31.80;14.63;;;-2.20;99.90;;;;;;4432574;28;657012;-71
2021/04/07 01:32:48;;;;;;;47.40;19.73;;;-2.20;99.90;;;;;;4412499;28;656734;-70
2021/04/07 01:35:35;;;;;;;43.00;17.83;;;-2.20;99.90;;;;;;4423594;28;657436;-72
2021/04/07 01:38:23;;;;;;;36.13;15.93;;;-2.20;99.90;;;;;;4422542;28;656969;-70
2021/04/07 01:41:12;;;;;;;40.67;16.13;;;-2.20;99.90;;;;;;4431650;28;657249;-72
2021/04/07 01:43:59;;;;;;;44.23;17.43;;;-2.20;99.90;;;;;;4410870;28;656940;-72
2021/04/07 01:46:47;;;;;;;40.87;17.60;;;-2.20;99.90;;;;;;4425478;28;656552;-71
2021/04/07 01:49:34;;;;;;;48.97;19.10;;;-2.20;99.90;;;;;;4408045;28;657839;-72
2021/04/07 01:52:21;;;;;;;38.67;17.90;;;-2.30;99.90;;;;;;4430732;28;657041;-71
2021/04/07 01:55:09;;;;;;;48.53;19.77;;;-2.20;99.90;;;;;;4411185;28;656431;-71
2021/04/07 01:57:57;;;;;;;43.90;19.08;;;-2.30;99.90;;;;;;4429907;28;656746;-72
2021/04/07 02:00:45;;;;;;;37.87;16.13;;;-2.30;99.90;;;;;;4411564;28;658179;-72
2021/04/07 02:03:34;;;;;;;41.73;18.20;;;-2.30;99.90;;;;;;4427428;28;657825;-70
2021/04/07 02:06:21;;;;;;;41.40;19.10;;;-2.40;99.90;;;;;;4429005;28;657472;-71
2021/04/07 02:09:09;;;;;;;44.10;19.55;;;-2.50;99.90;;;;;;4411075;28;657513;-71
2021/04/07 02:11:57;;;;;;;33.17;16.13;;;-2.50;99.90;;;;;;4430019;28;657927;-72
2021/04/07 02:14:45;;;;;;;43.23;18.50;;;-2.50;99.90;;;;;;4406623;28;658576;-71
2021/04/07 02:17:32;;;;;;;40.50;15.47;;;-2.50;99.90;;;;;;4413107;28;658131;-70
2021/04/07 02:20:20;;;;;;;44.30;18.90;;;-2.60;99.90;;;;;;4433669;28;658787;-71
2021/04/07 02:23:07;;;;;;;39.17;18.67;;;-2.60;99.90;;;;;;4426042;28;657527;-70
2021/04/07 02:25:55;;;;;;;36.40;17.77;;;-2.60;99.90;;;;;;4433099;28;657520;-72
2021/04/07 02:28:42;;;;;;;42.30;18.67;;;-2.70;99.90;;;;;;4415240;28;657455;-70
2021/04/07 02:31:30;;;;;;;40.47;19.40;;;-2.70;99.90;;;;;;4433581;28;658215;-72
2021/04/07 02:34:18;;;;;;;42.73;18.43;;;-2.60;99.90;;;;;;4410204;28;658489;-70
2021/04/07 02:37:05;;;;;;;43.77;18.47;;;-2.70;99.90;;;;;;4428913;28;658655;-71
2021/04/07 02:39:52;;;;;;;39.87;17.57;;;-2.70;99.90;;;;;;4421852;28;658092;-70
2021/04/07 02:42:40;;;;;;;42.87;17.93;;;-2.70;99.90;;;;;;4429413;28;658248;-71
2021/04/07 02:45:27;;;;;;;37.13;16.90;;;-2.80;99.90;;;;;;4429144;28;657598;-71
2021/04/07 02:48:15;;;;;;;40.57;16.63;;;-2.80;99.90;;;;;;4407747;28;658350;-71
2021/04/07 02:51:03;;;;;;;42.23;17.67;;;-2.90;99.90;;;;;;4423048;28;657251;-70
2021/04/07 02:53:50;;;;;;;48.77;18.10;;;-2.90;99.90;;;;;;4433071;28;659026;-72
2021/04/07 02:56:37;;;;;;;46.27;17.83;;;-2.90;99.90;;;;;;4422893;28;658030;-70
2021/04/07 02:59:25;;;;;;;37.47;16.97;;;-3.00;99.90;;;;;;4436580;28;657867;-72
2021/04/07 03:02:13;;;;;;;44.37;18.17;;;-3.00;99.90;;;;;;4433183;28;657551;-71
2021/04/07 03:05:01;;;;;;;42.50;18.63;;;-3.00;99.90;;;;;;4433362;28;658638;-72
2021/04/07 03:07:48;;;;;;;37.83;17.50;;;-3.10;99.90;;;;;;4413472;28;657849;-71
2021/04/07 03:10:35;;;;;;;43.13;17.73;;;-3.10;99.90;;;;;;4434850;28;657631;-72
2021/04/07 03:13:22;;;;;;;39.73;17.07;;;-3.20;99.90;;;;;;4413713;28;657784;-71
2021/04/07 03:16:10;;;;;;;42.07;17.77;;;-3.20;99.90;;;;;;4432273;28;658070;-72
2021/04/07 03:18:58;;;;;;;46.07;17.57;;;-3.10;99.90;;;;;;4419214;28;657731;-71
2021/04/07 03:21:46;;;;;;;42.97;18.90;;;-3.10;99.90;;;;;;4432144;28;657696;-71
2021/04/07 03:24:34;;;;;;;43.17;18.80;;;-3.00;99.90;;;;;;4413369;28;657954;-72
2021/04/07 03:27:22;;;;;;;43.53;19.53;;;-2.90;99.90;;;;;;4432501;28;658164;-72
2021/04/07 03:30:10;;;;;;;43.67;19.03;;;-2.80;99.90;;;;;;4409361;28;658767;-72
2021/04/07 03:32:58;;;;;;;41.70;19.20;;;-2.70;99.90;;;;;;4418583;28;657811;-70
2021/04/07 03:35:45;;;;;;;46.97;20.27;;;-2.70;99.90;;;;;;4432210;28;658917;-72
2021/04/07 03:38:34;;;;;;;43.77;19.87;;;-2.60;99.90;;;;;;4424078;28;657919;-70
2021/04/07 03:41:21;;;;;;;46.07;18.63;;;-2.50;99.90;;;;;;4431291;28;657667;-71
2021/04/07 03:44:08;;;;;;;46.13;20.75;;;-2.50;99.90;;;;;;4413406;28;658874;-72
2021/04/07 03:46:56;;;;;;;48.73;20.17;;;-2.40;99.90;;;;;;4431926;28;658631;-72
2021/04/07 03:49:43;;;;;;;48.90;21.57;;;-2.50;99.90;;;;;;4412838;28;657601;-71
2021/04/07 03:52:30;;;;;;;46.43;20.80;;;-2.40;99.90;;;;;;4435157;28;657992;-71
2021/04/07 03:55:19;;;;;;;44.22;19.02;;;-2.40;99.90;;;;;;4413357;28;657613;-70
2021/04/07 03:58:06;;;;;;;41.43;19.80;;;-2.40;99.90;;;;;;4435681;28;657498;-71
2021/04/07 04:00:53;;;;;;;46.37;20.00;;;-2.40;99.90;;;;;;4412481;28;657394;-71
2021/04/07 04:03:41;;;;;;;51.03;23.17;;;-2.40;99.90;;;;;;4428523;28;658703;-72
2021/04/07 04:06:28;;;;;;;49.67;22.13;;;-2.50;99.90;;;;;;4412605;28;657620;-70
2021/04/07 04:09:15;;;;;;;47.50;21.57;;;-2.40;99.90;;;;;;4435468;28;659185;-71
2021/04/07 04:12:04;;;;;;;58.03;22.97;;;-2.40;99.90;;;;;;4415485;28;657395;-69
2021/04/07 04:14:52;;;;;;;52.88;21.70;;;-2.40;99.90;;;;;;4430814;28;657485;-71
2021/04/07 04:17:39;;;;;;;53.33;21.83;;;-2.30;99.90;;;;;;4412600;28;657313;-71
2021/04/07 04:20:27;;;;;;;51.33;22.20;;;-2.30;99.90;;;;;;4431755;28;657324;-71
2021/04/07 04:23:14;;;;;;;49.80;21.53;;;-2.30;99.90;;;;;;4412223;28;657631;-71
2021/04/07 04:26:01;;;;;;;52.80;22.37;;;-2.30;99.90;;;;;;4429735;28;658269;-71
2021/04/07 04:28:49;;;;;;;48.13;21.07;;;-2.30;99.90;;;;;;4411440;28;657599;-70
2021/04/07 04:31:37;;;;;;;49.03;21.20;;;-2.20;99.90;;;;;;4430540;28;657872;-71
2021/04/07 04:34:24;;;;;;;56.93;22.00;;;-2.20;99.90;;;;;;4412087;28;658165;-70
2021/04/07 04:37:11;;;;;;;48.90;20.27;;;-2.20;99.90;;;;;;4430363;28;658116;-71
2021/04/07 04:39:59;;;;;;;48.88;20.30;;;-2.20;99.90;;;;;;4412535;28;657338;-71
2021/04/07 04:42:46;;;;;;;47.30;20.37;;;-2.10;99.90;;;;;;4431235;28;658164;-70
2021/04/07 04:45:36;;;;;;;51.47;21.33;;;-2.10;99.90;;;;;;4410587;28;657983;-71
2021/04/07 04:48:23;;;;;;;47.93;21.10;;;-2.10;99.90;;;;;;4412240;28;657676;-71
2021/04/07 04:51:10;;;;;;;48.93;20.53;;;-2.10;99.90;;;;;;4433282;28;658383;-71
2021/04/07 04:53:57;;;;;;;49.03;19.77;;;-2.00;99.90;;;;;;4411310;28;657954;-69
2021/04/07 04:56:44;;;;;;;35.38;14.68;;;-2.00;99.90;;;;;;4434326;28;657700;-71
2021/04/07 04:59:32;;;;;;;52.43;21.03;;;-2.00;99.90;;;;;;4430636;28;657623;-71
2021/04/07 05:02:20;;;;;;;43.73;18.37;;;-1.90;99.90;;;;;;4411982;28;658125;-70
2021/04/07 05:05:09;;;;;;;46.13;18.40;;;-1.90;99.90;;;;;;4425299;28;658396;-69
2021/04/07 05:07:56;;;;;;;33.10;11.87;;;-1.90;99.90;;;;;;4431143;28;658113;-71
2021/04/07 05:10:43;;;;;;;44.47;19.73;;;-1.80;99.90;;;;;;4409936;28;657653;-71
2021/04/07 05:13:31;;;;;;;51.17;20.57;;;-1.80;99.90;;;;;;4434200;28;658275;-71
2021/04/07 05:16:18;;;;;;;51.10;21.13;;;-1.70;99.90;;;;;;4411573;28;657805;-71
2021/04/07 05:19:06;;;;;;;45.30;20.80;;;-1.60;99.90;;;;;;4433599;28;658416;-70
2021/04/07 05:21:54;;;;;;;48.00;19.60;;;-1.40;99.90;;;;;;4408872;28;657791;-70
2021/04/07 05:24:41;;;;;;;47.83;19.70;;;-1.40;99.90;;;;;;4430088;28;658238;-71
2021/04/07 05:27:28;;;;;;;49.57;21.80;;;-1.20;99.90;;;;;;4411305;28;658157;-70
2021/04/07 05:30:16;;;;;;;46.33;19.50;;;-1.20;99.90;;;;;;4434153;28;658431;-71
2021/04/07 05:33:03;;;;;;;50.53;18.83;;;-1.20;99.90;;;;;;4411228;28;657798;-71
2021/04/07 05:35:52;;;;;;;53.37;20.93;;;-1.20;99.90;;;;;;4429689;28;658202;-71
2021/04/07 05:38:39;;;;;;;44.13;20.17;;;-1.20;99.90;;;;;;4410944;28;657970;-72
2021/04/07 05:41:27;;;;;;;44.20;20.30;;;-1.10;99.90;;;;;;4433934;28;657108;-71
2021/04/07 05:44:14;;;;;;;44.87;19.47;;;-1.10;99.90;;;;;;4411219;28;658034;-71
2021/04/07 05:47:01;;;;;;;46.50;19.07;;;-1.10;99.90;;;;;;4428355;28;657608;-71
2021/04/07 05:49:49;;;;;;;43.70;19.40;;;-1.10;99.90;;;;;;4410995;28;658156;-71
2021/04/07 05:52:37;;;;;;;43.73;20.27;;;-1.10;99.90;;;;;;4430008;28;657260;-71
2021/04/07 05:55:24;;;;;;;39.83;17.93;;;-1.10;99.90;;;;;;4407055;28;658719;-72
2021/04/07 05:58:12;;;;;;;38.40;15.60;;;-1.00;99.90;;;;;;4429072;28;657450;-71
2021/04/07 06:00:59;;;;;;;43.53;19.50;;;-0.80;99.90;;;;;;4410462;28;657875;-71
2021/04/07 06:03:46;;;;;;;45.87;19.93;;;-0.70;99.90;;;;;;4428654;28;657536;-72
2021/04/07 06:06:33;;;;;;;37.33;16.77;;;-0.60;99.90;;;;;;4411275;28;657400;-71
2021/04/07 06:09:22;;;;;;;44.83;20.83;;;-0.40;99.90;;;;;;4429838;28;658258;-71
2021/04/07 06:12:10;;;;;;;45.47;19.40;;;-0.40;99.90;;;;;;4389329;28;658021;-71
2021/04/07 06:14:57;;;;;;;47.30;17.07;;;-0.30;99.90;;;;;;4412236;28;657674;-71
2021/04/07 06:17:52;;;;;;;49.63;21.57;;;-0.30;99.90;;;;;;4393236;28;658732;-71
2021/04/07 06:20:41;;;;;;;44.30;19.17;;;-0.20;99.90;;;;;;4365655;28;658479;-71
2021/04/07 06:23:28;;;;;;;47.90;21.17;;;0.00;99.90;;;;;;4393085;28;657473;-71
2021/04/07 06:26:17;;;;;;;38.95;16.25;;;0.10;99.90;;;;;;4416984;28;657210;-72
2021/04/07 06:29:05;;;;;;;47.43;20.27;;;0.30;99.90;;;;;;4390581;28;656988;-71
2021/04/07 06:31:53;;;;;;;33.73;15.17;;;0.30;99.90;;;;;;4394026;28;656604;-71
2021/04/07 06:34:40;;;;;;;39.73;18.67;;;0.50;99.90;;;;;;4413430;28;657665;-72
2021/04/07 06:37:27;;;;;;;41.07;18.97;;;0.30;99.90;;;;;;4401941;28;656746;-69
2021/04/07 06:40:16;;;;;;;34.60;17.27;;;0.10;99.90;;;;;;4417115;28;656973;-71
2021/04/07 06:43:05;;;;;;;45.13;20.07;;;0.10;99.90;;;;;;4393917;28;657090;-71
2021/04/07 06:45:53;;;;;;;42.72;18.77;;;0.20;99.90;;;;;;4397706;28;656838;-70
2021/04/07 06:48:40;;;;;;;35.67;17.10;;;0.30;99.90;;;;;;4417053;28;657212;-71
2021/04/07 06:51:28;;;;;;;37.73;16.13;;;0.50;99.90;;;;;;4393919;28;657020;-71
2021/04/07 06:54:19;;;;;;;46.13;20.30;;;0.60;99.90;;;;;;4413611;28;657162;-71
2021/04/07 06:57:06;;;;;;;34.90;15.83;;;0.60;99.90;;;;;;4389781;28;656487;-71
2021/04/07 06:59:56;;;;;;;44.90;19.40;;;0.80;99.90;;;;;;4389122;28;656428;-70
2021/04/07 07:02:43;;;;;;;40.00;19.23;;;0.90;99.90;;;;;;4391253;28;656791;-71
2021/04/07 07:05:31;;;;;;;50.03;18.73;;;0.80;99.90;;;;;;4412583;28;657803;-71
2021/04/07 07:08:19;;;;;;;42.33;18.00;;;0.80;99.90;;;;;;4392935;28;656030;-71
2021/04/07 07:11:11;;;;;;;41.27;19.00;;;1.00;99.90;;;;;;4424164;28;656100;-71
2021/04/07 07:13:59;;;;;;;31.40;14.97;;;1.30;99.90;;;;;;4408234;28;656812;-71
2021/04/07 07:16:48;;;;;;;34.40;15.67;;;1.30;99.90;;;;;;4433842;28;656108;-70
2021/04/07 07:19:35;;;;;;;36.17;15.33;;;1.10;99.90;;;;;;4407009;28;657063;-71
2021/04/07 07:22:24;;;;;;;30.43;14.77;;;1.10;99.90;;;;;;4411477;28;657140;-70
2021/04/07 07:25:11;;;;;;;25.83;12.50;;;1.00;99.90;;;;;;4430309;28;656151;-71
2021/04/07 07:28:00;;;;;;;31.63;15.03;;;0.90;99.90;;;;;;4410066;28;656593;-71
2021/04/07 07:30:48;;;;;;;38.67;15.40;;;1.00;99.90;;;;;;4419240;28;656831;-69
2021/04/07 07:33:36;;;;;;;27.60;12.07;;;1.20;99.90;;;;;;4430266;28;658170;-69
2021/04/07 07:36:23;;;;;;;33.87;13.37;;;1.30;99.90;;;;;;4414162;28;656943;-71
2021/04/07 07:39:11;;;;;;;33.20;12.60;;;1.40;99.90;;;;;;4432710;28;657470;-70
2021/04/07 07:42:01;;;;;;;29.43;13.73;;;1.50;99.90;;;;;;4414089;28;656545;-70
2021/04/07 07:44:49;;;;;;;27.87;12.77;;;1.40;99.90;;;;;;4414667;28;656480;-71
2021/04/07 07:47:40;;;;;;;31.60;14.30;;;1.40;99.90;;;;;;4433179;28;656475;-71
2021/04/07 07:50:36;;;;;;;26.97;11.57;;;1.40;99.90;;;;;;4409692;28;656757;-70
2021/04/07 07:53:23;;;;;;;27.43;13.23;;;1.50;99.90;;;;;;4387441;28;656706;-70
2021/04/07 07:56:11;;;;;;;32.20;13.63;;;1.60;99.90;;;;;;4432995;28;656478;-70
2021/04/07 07:58:58;;;;;;;28.53;13.07;;;1.80;99.90;;;;;;4412866;28;656614;-69
2021/04/07 08:01:49;;;;;;;23.13;10.90;;;2.00;99.90;;;;;;4436002;28;656724;-71
2021/04/07 08:04:44;;;;;;;29.47;14.07;;;2.00;99.90;;;;;;4409903;28;656478;-70
2021/04/07 08:07:33;;;;;;;35.37;14.30;;;1.90;99.90;;;;;;4410030;28;656415;-71
2021/04/07 08:10:22;;;;;;;35.70;13.77;;;1.90;99.90;;;;;;4410076;28;657562;-70
2021/04/07 08:13:10;;;;;;;28.87;14.17;;;2.00;99.90;;;;;;4414480;28;657178;-71
2021/04/07 08:15:58;;;;;;;29.03;13.77;;;2.10;99.90;;;;;;4417529;28;656802;-68
2021/04/07 08:18:46;;;;;;;28.47;12.90;;;2.00;99.90;;;;;;4435039;28;657982;-71
2021/04/07 08:21:34;;;;;;;19.83;9.33;;;2.00;99.90;;;;;;4413571;28;657758;-71
2021/04/07 08:24:26;;;;;;;23.23;10.83;;;2.00;99.90;;;;;;4433102;28;655481;-71
2021/04/07 08:27:15;;;;;;;16.58;8.45;;;2.00;99.90;;;;;;4386065;28;656765;-71
2021/04/07 08:30:03;;;;;;;19.43;7.87;;;2.00;99.90;;;;;;4429582;28;655882;-69
2021/04/07 08:32:51;;;;;;;20.87;9.00;;;2.40;99.90;;;;;;4436359;28;656110;-69
2021/04/07 08:35:39;;;;;;;17.70;9.37;;;2.70;99.90;;;;;;4414780;28;655805;-69
2021/04/07 08:38:30;;;;;;;16.97;7.77;;;2.90;99.90;;;;;;4434036;28;656074;-70
2021/04/07 08:41:22;;;;;;;16.80;8.33;;;2.90;99.90;;;;;;4411059;28;655659;-69
2021/04/07 08:44:10;;;;;;;21.33;10.10;;;2.70;99.90;;;;;;4387607;28;655920;-68
2021/04/07 08:46:59;;;;;;;23.37;10.93;;;2.50;99.90;;;;;;4412547;28;657033;-69
2021/04/07 08:49:47;;;;;;;16.43;8.07;;;2.30;99.90;;;;;;4436251;28;657032;-70
2021/04/07 08:52:42;;;;;;;24.57;10.90;;;2.20;99.90;;;;;;4414715;28;655597;-70
2021/04/07 08:55:29;;;;;;;24.37;10.73;;;2.20;99.90;;;;;;4386011;28;656767;-70
2021/04/07 08:58:23;;;;;;;21.90;9.50;;;2.10;99.90;;;;;;4431638;28;656509;-71
2021/04/07 09:01:19;;;;;;;22.27;8.87;;;2.10;99.90;;;;;;4391443;28;655473;-70
2021/04/07 09:04:07;;;;;;;25.77;11.33;;;2.10;99.90;;;;;;4410229;28;655702;-70
2021/04/07 09:06:58;;;;;;;15.43;7.83;;;2.20;99.90;;;;;;4408594;28;657170;-70
2021/04/07 09:09:54;;;;;;;17.03;7.07;;;2.50;99.90;;;;;;4409729;28;656867;-70
2021/04/07 09:12:45;;;;;;;12.93;6.73;;;2.70;99.90;;;;;;4410235;28;655613;-71
2021/04/07 09:15:34;;;;;;;11.17;5.37;;;2.90;99.90;;;;;;4399793;28;655596;-69
2021/04/07 09:18:32;;;;;;;11.47;5.97;;;2.90;99.90;;;;;;4436791;28;655149;-70
2021/04/07 09:21:22;;;;;;;9.70;5.22;;;2.90;99.90;;;;;;4414002;28;655790;-70
2021/04/07 09:24:16;;;;;;;15.40;6.57;;;2.90;99.90;;;;;;4414986;28;654634;-70
2021/04/07 09:27:03;;;;;;;13.83;7.30;;;3.00;99.90;;;;;;4412269;28;655434;-70
2021/04/07 09:29:51;;;;;;;12.00;6.90;;;3.10;99.90;;;;;;4431956;28;655569;-70
2021/04/07 09:32:41;;;;;;;9.60;5.47;;;3.10;99.90;;;;;;4412769;28;655398;-68
2021/04/07 09:35:28;;;;;;;8.53;4.13;;;3.20;99.90;;;;;;4415416;28;654451;-69
2021/04/07 09:38:19;;;;;;;8.77;3.80;;;3.70;99.90;;;;;;4433718;28;655126;-68
2021/04/07 09:41:09;;;;;;;6.23;3.17;;;4.10;99.90;;;;;;4414337;28;654478;-70
2021/04/07 09:43:56;;;;;;;6.20;3.20;;;4.70;99.90;;;;;;4407646;28;654436;-69
2021/04/07 09:46:51;;;;;;;7.33;3.43;;;4.10;99.90;;;;;;4414746;28;654274;-67
2021/04/07 09:49:40;;;;;;;8.33;3.33;;;3.70;99.90;;;;;;4387837;28;654860;-67
2021/04/07 09:52:32;;;;;;;6.77;3.63;;;3.50;99.90;;;;;;4428516;28;654309;-69
2021/04/07 09:55:21;;;;;;;11.07;3.57;;;3.30;99.90;;;;;;4410625;28;655836;-69
2021/04/07 09:58:09;;;;;;;11.33;5.37;;;3.10;99.90;;;;;;4412634;28;655670;-69
2021/04/07 10:00:57;;;;;;;11.00;5.40;;;3.10;99.90;;;;;;4435626;28;655499;-70
2021/04/07 10:03:48;;;;;;;9.90;5.43;;;3.70;99.90;;;;;;4413047;28;656226;-70
2021/04/07 10:06:38;;;;;;;11.77;6.10;;;3.80;99.90;;;;;;4403714;28;654851;-70
2021/04/07 10:09:29;;;;;;;11.97;5.23;;;3.90;99.90;;;;;;4409536;28;656270;-68
2021/04/07 10:12:17;;;;;;;9.93;4.87;;;3.70;99.90;;;;;;4409196;28;656022;-70
2021/04/07 10:15:06;;;;;;;11.97;5.33;;;3.60;99.90;;;;;;4415047;28;655396;-69
2021/04/07 10:17:54;;;;;;;12.10;5.93;;;3.60;99.90;;;;;;4414032;28;655384;-69
2021/04/07 10:20:41;;;;;;;11.07;4.97;;;4.00;99.90;;;;;;4432445;28;656154;-69
2021/04/07 10:23:29;;;;;;;10.37;5.53;;;4.80;99.90;;;;;;4412855;28;655626;-68
2021/04/07 10:26:17;;;;;;;11.73;5.37;;;5.40;99.90;;;;;;4429684;28;655700;-69
2021/04/07 10:29:04;;;;;;;10.30;4.83;;;5.50;99.90;;;;;;4412817;28;655440;-68
2021/04/07 10:31:52;;;;;;;6.57;4.00;;;5.00;99.90;;;;;;4435736;28;655751;-67
2021/04/07 10:34:40;;;;;;;8.77;4.07;;;4.00;99.90;;;;;;4403643;28;655538;-70
2021/04/07 10:37:28;;;;;;;7.57;3.93;;;3.60;99.90;;;;;;4428698;28;654644;-69
2021/04/07 10:40:20;;;;;;;7.80;3.30;;;3.50;99.90;;;;;;4432700;28;655494;-70
2021/04/07 10:43:11;;;;;;;9.03;3.70;;;3.70;99.90;;;;;;4400853;28;654385;-67
2021/04/07 10:45:59;;;;;;;9.07;3.40;;;4.20;99.90;;;;;;4414054;28;654103;-70
2021/04/07 10:48:54;;;;;;;7.03;3.50;;;4.50;98.60;;;;;;4436375;28;654067;-70
2021/04/07 10:51:41;;;;;;;5.47;2.63;;;4.30;99.90;;;;;;4410028;28;654562;-70
2021/04/07 10:54:29;;;;;;;4.80;2.88;;;3.50;99.90;;;;;;4414020;28;654877;-70
2021/04/07 10:57:17;;;;;;;7.10;3.40;;;2.70;99.90;;;;;;4433366;28;654575;-70
2021/04/07 11:00:07;;;;;;;8.23;3.07;;;2.30;99.90;;;;;;4411432;28;654836;-70
2021/04/07 11:02:55;;;;;;;5.37;2.40;;;1.90;99.90;;;;;;4413000;28;655157;-70
2021/04/07 11:05:44;;;;;;;6.57;2.60;;;1.80;99.90;;;;;;4413899;28;654774;-70
2021/04/07 11:08:38;;;;;;;4.17;2.77;;;2.10;99.90;;;;;;4423868;28;654445;-70
2021/04/07 11:11:26;;;;;;;6.80;2.50;;;2.30;99.90;;;;;;4412561;28;655108;-70
2021/04/07 11:14:14;;;;;;;7.40;3.83;;;2.50;99.90;;;;;;4417156;28;654369;-70
2021/04/07 11:17:03;;;;;;;4.73;2.70;;;2.40;99.90;;;;;;4435701;28;654722;-71
2021/04/07 11:19:50;;;;;;;10.73;4.90;;;2.80;99.90;;;;;;4413359;28;655321;-71
2021/04/07 11:22:37;;;;;;;9.98;4.35;;;3.30;99.90;;;;;;4420746;28;655828;-69
2021/04/07 11:25:26;;;;;;;7.07;3.73;;;4.00;99.90;;;;;;4436525;28;655837;-69
2021/04/07 11:28:17;;;;;;;10.60;3.93;;;4.20;99.90;;;;;;4416798;28;654450;-70
2021/04/07 11:31:09;;;;;;;7.67;3.60;;;5.00;99.90;;;;;;4415335;28;655722;-71
2021/04/07 11:33:59;;;;;;;8.00;3.95;;;4.60;99.90;;;;;;4412836;28;655485;-71
2021/04/07 11:36:54;;;;;;;10.90;3.73;;;4.50;99.90;;;;;;4412874;28;655045;-70
2021/04/07 11:39:49;;;;;;;5.45;2.60;;;4.50;99.90;;;;;;4390923;28;655292;-71
2021/04/07 11:42:47;;;;;;;4.17;2.53;;;4.10;99.90;;;;;;4411920;28;654532;-71
2021/04/07 11:45:35;;;;;;;5.57;3.07;;;4.60;99.90;;;;;;4389844;28;654522;-70
2021/04/07 11:48:24;;;;;;;5.87;3.03;;;4.70;99.90;;;;;;4428219;28;654406;-69
2021/04/07 11:51:12;;;;;;;10.57;2.93;;;5.10;99.90;;;;;;4435776;28;654164;-70
2021/04/07 11:54:00;;;;;;;4.03;2.03;;;5.60;99.90;;;;;;4415287;28;656443;-71
2021/04/07 11:56:48;;;;;;;3.47;2.37;;;6.50;99.90;;;;;;4425228;28;654422;-70
2021/04/07 11:59:35;;;;;;;6.77;2.40;;;5.80;99.90;;;;;;4438710;28;654659;-71
2021/04/07 12:02:23;;;;;;;4.47;2.67;;;5.80;99.90;;;;;;4416156;28;654311;-70
2021/04/07 12:05:14;;;;;;;5.87;2.70;;;5.60;99.90;;;;;;4437480;28;654757;-71
2021/04/07 12:08:03;;;;;;;10.30;5.03;;;5.40;99.90;;;;;;4412282;28;654868;-70
2021/04/07 12:10:51;;;;;;;10.30;6.33;;;5.20;99.90;;;;;;4408320;28;655982;-70
2021/04/07 12:13:39;;;;;;;10.67;6.13;;;4.50;99.90;;;;;;4414917;28;655254;-70
2021/04/07 12:16:29;;;;;;;12.77;5.40;;;3.90;99.90;;;;;;4433302;28;655668;-70
2021/04/07 12:19:22;;;;;;;8.67;4.60;;;3.00;99.90;;;;;;4410504;28;655731;-70
2021/04/07 12:22:13;;;;;;;5.30;2.83;;;2.40;99.90;;;;;;4388949;28;655081;-70
2021/04/07 12:25:02;;;;;;;8.60;4.43;;;1.80;99.90;;;;;;4412122;28;655338;-70
2021/04/07 12:27:51;;;;;;;12.00;5.50;;;1.30;99.90;;;;;;4416481;28;654897;-71
2021/04/07 12:30:49;;;;;;;13.47;5.80;;;0.90;99.90;;;;;;4414511;28;655764;-71
2021/04/07 12:33:43;;;;;;;10.23;5.40;;;0.70;99.90;;;;;;4396713;28;655280;-70
2021/04/07 12:36:32;;;;;;;15.37;5.63;;;0.60;99.90;;;;;;4410378;28;656155;-71
2021/04/07 12:39:26;;;;;;;13.80;6.50;;;0.60;99.90;;;;;;4409777;28;656148;-71
2021/04/07 12:42:17;;;;;;;11.57;6.23;;;1.00;99.90;;;;;;4388900;28;655999;-70
2021/04/07 12:45:07;;;;;;;7.60;4.53;;;1.40;99.90;;;;;;4410743;28;656131;-70
2021/04/07 12:47:56;;;;;;;13.07;6.57;;;1.60;99.90;;;;;;4396846;28;655264;-71
2021/04/07 12:50:44;;;;;;;14.40;6.70;;;1.70;99.90;;;;;;4414120;28;655690;-70
2021/04/07 12:53:33;;;;;;;10.13;5.07;;;1.70;99.90;;;;;;4432672;28;655279;-70
2021/04/07 12:56:22;;;;;;;14.07;6.57;;;2.00;99.90;;;;;;4410463;28;656518;-70
2021/04/07 12:59:11;;;;;;;8.83;4.80;;;2.10;99.90;;;;;;4410564;28;656134;-69
2021/04/07 13:01:59;;;;;;;9.90;4.40;;;2.30;99.90;;;;;;4414486;28;654648;-70
2021/04/07 13:04:49;;;;;;;17.47;5.20;;;2.40;99.90;;;;;;4434166;28;654509;-69
2021/04/07 13:07:36;;;;;;;12.33;6.20;;;3.00;99.90;;;;;;4409966;28;656038;-69
2021/04/07 13:10:24;;;;;;;12.63;5.17;;;3.50;99.90;;;;;;4413821;28;655680;-69
2021/04/07 13:13:12;;;;;;;10.27;5.23;;;4.20;99.90;;;;;;4432852;28;655824;-70
2021/04/07 13:16:00;;;;;;;11.02;5.00;;;5.00;99.90;;;;;;4413909;28;656057;-70
2021/04/07 13:18:47;;;;;;;10.00;5.47;;;5.80;99.90;;;;;;4424746;28;655743;-69
2021/04/07 13:21:36;;;;;;;12.13;6.23;;;6.40;99.90;;;;;;4432644;28;655809;-70
2021/04/07 13:24:24;;;;;;;14.27;6.43;;;6.80;99.90;;;;;;4413600;28;655171;-70
2021/04/07 13:27:11;;;;;;;13.93;6.03;;;7.20;99.90;;;;;;4432744;28;655980;-70
2021/04/07 13:30:05;;;;;;;13.63;5.70;;;6.10;99.90;;;;;;4414029;28;655435;-70
2021/04/07 13:32:57;;;;;;;14.77;6.60;;;5.80;99.90;;;;;;4402975;28;656086;-69
2021/04/07 13:35:48;;;;;;;14.80;6.63;;;5.50;99.90;;;;;;4410433;28;655900;-70
2021/04/07 13:38:45;;;;;;;9.20;5.77;;;5.50;99.90;;;;;;4403101;28;655973;-70
2021/04/07 13:41:45;;;;;;;11.57;6.27;;;6.60;99.90;;;;;;4392204;28;654637;-69
2021/04/07 13:44:33;;;;;;;15.67;6.53;;;6.80;99.90;;;;;;4431192;28;655783;-69
2021/04/07 13:47:23;;;;;;;12.57;5.90;;;7.10;99.90;;;;;;4436401;28;656174;-71
2021/04/07 13:50:14;;;;;;;13.57;6.17;;;6.50;99.90;;;;;;4412714;28;656764;-71
2021/04/07 13:53:02;;;;;;;16.87;7.10;;;5.80;99.90;;;;;;4409467;28;655590;-70
2021/04/07 13:55:53;;;;;;;14.73;6.90;;;5.10;99.90;;;;;;4413060;28;656028;-70
2021/04/07 13:58:43;;;;;;;20.93;8.07;;;4.30;99.90;;;;;;4409673;28;655910;-70
2021/04/07 14:01:31;;;;;;;15.13;7.73;;;3.70;99.90;;;;;;4409765;28;656259;-70
2021/04/07 14:04:21;;;;;;;15.03;7.83;;;3.50;99.90;;;;;;4413516;28;656016;-71
2021/04/07 14:07:12;;;;;;;24.63;8.20;;;3.60;99.90;;;;;;4410122;28;655704;-71
2021/04/07 14:10:00;;;;;;;16.40;7.83;;;4.60;99.90;;;;;;4413196;28;656646;-70
2021/04/07 14:12:52;;;;;;;19.07;8.63;;;5.50;99.90;;;;;;4427744;28;655388;-69
2021/04/07 14:15:40;;;;;;;16.30;8.40;;;6.60;99.90;;;;;;4413212;28;655643;-70